Flight Track Log - Related Links

Times and Time Zones

All times are in EDT time to prevent confusion due to time zone crossing. See the ACA265 flight status page for this flight to view local times or setup timezone preferences in your user account.

Time Position Orientation Groundspeed Altitude Reporting Facility
EDT Latitude Longitude Course Direction KTS MPH feet Rate Location/Type
Wed 11:56:42 AM 43.6500 -79.6500 297° West 160 184 2,300  Level Toronto Center
Wed 12:01:42 PM 43.8000 -80.0667 319° Northwest 350 403 17,600 3,083 Climbing Toronto Center
Wed 12:02:42 PM 43.8833 -80.1667 308° West 370 426 20,800 2,850 Climbing Toronto Center
Wed 12:03:42 PM 43.9500 -80.2833 324° Northwest 370 426 23,300 2,300 Climbing Toronto Center
Wed 12:04:42 PM 44.0333 -80.3667 311° West 380 437 25,400 1,950 Climbing Toronto Center
Wed 12:05:42 PM 44.1167 -80.5000 309° West 400 460 27,200 1,600 Climbing Toronto Center
Wed 12:06:42 PM 44.1833 -80.6167 315° West 410 472 28,600 1,500 Climbing Toronto Center
Wed 12:07:42 PM 44.2667 -80.7333 309° West 420 483 30,200 1,550 Climbing Toronto Center
Wed 12:08:42 PM 44.3333 -80.8500 309° West 420 483 31,700 1,450 Climbing Toronto Center
Wed 12:09:42 PM 44.4000 -80.9667 311° West 420 483 33,100 1,200 Climbing Toronto Center
Wed 12:10:42 PM 44.4833 -81.1000 315° West 430 495 34,100 1,100 Climbing Toronto Center
Wed 12:11:42 PM 44.5667 -81.2167 311° West 440 506 35,300 1,200 Climbing Toronto Center
Wed 12:12:42 PM 44.6500 -81.3500 311° West 440 506 36,500 1,100 Climbing Toronto Center
Wed 12:13:42 PM 44.7333 -81.4833 315° West 440 506 37,500 750 Climbing Toronto Center
Wed 12:14:42 PM 44.8167 -81.6000 311° West 430 495 38,000 250 Climbing Toronto Center
Wed 12:15:42 PM 44.9000 -81.7333 311° West 440 506 38,000  Level Toronto Center
Wed 12:16:42 PM 44.9833 -81.8667 305° West 440 506 38,000  Level Toronto Center
Wed 12:17:42 PM 45.0500 -82.0000 312° West 450 518 38,000  Level Toronto Center
Wed 12:18:42 PM 45.1333 -82.1333 308° West 440 506 38,000  Level Toronto Center
Wed 12:19:42 PM 45.2167 -82.2833 315° West 450 518 38,000  Level Toronto Center
Wed 12:20:42 PM 45.3000 -82.4000 312° West 440 506 38,000  Level Toronto Center
Wed 12:21:42 PM 45.3833 -82.5333 308° West 450 518 38,000  Level Toronto Center
Wed 12:22:42 PM 45.4667 -82.6833 309° West 440 506 38,000  Level Toronto Center
Wed 12:23:42 PM 45.5333 -82.8000 308° West 440 506 38,000  Level Toronto Center
Wed 12:24:42 PM 45.6167 -82.9500 309° West 440 506 38,000  Level Toronto Center
Wed 12:25:42 PM 45.6833 -83.0667 312° West 430 495 38,000  Level Toronto Center
Wed 12:26:42 PM 45.7667 -83.2000 316° Northwest 430 495 38,000  Level Toronto Center
Wed 12:27:42 PM 45.8500 -83.3167 312° West 430 495 38,000  Level Toronto Center
Wed 12:28:42 PM 45.9333 -83.4500 316° Northwest 430 495 38,000  Level Toronto Center
Wed 12:29:42 PM 46.0167 -83.5667 312° West 430 495 38,000  Level Toronto Center
Wed 12:30:42 PM 46.1000 -83.7000 316° Northwest 430 495 38,000  Level Toronto Center
Wed 12:31:42 PM 46.1833 -83.8167 312° West 430 495 38,000  Level Toronto Center
Wed 12:32:42 PM 46.2667 -83.9500 312° West 430 495 38,000  Level Toronto Center
Wed 12:33:42 PM 46.3500 -84.0833 303° West 430 495 38,000  Level Toronto Center
Wed 12:34:42 PM 46.4167 -84.2333 296° West 430 495 38,000  Level Toronto Center
Wed 12:35:42 PM 46.4667 -84.3833 300° West 430 495 38,000  Level Toronto Center
Wed 12:36:42 PM 46.5333 -84.5500 299° West 430 495 38,000  Level Toronto Center
Wed 12:37:42 PM 46.5833 -84.6833 296° West 430 495 38,000  Level Toronto Center
Wed 12:38:42 PM 46.6333 -84.8333 326° Northwest 420 483 38,000  Level Toronto Center
Wed 12:39:14 PM 46.6667 -84.8667 299° West 430 495 38,000  Level Winnipeg Center
Wed 12:42:14 PM 46.8333 -85.3167 294° West 420 483 38,000  Level Winnipeg Center
Wed 12:43:14 PM 46.8833 -85.4833 299° West 430 495 38,000  Level Winnipeg Center
Wed 12:44:14 PM 46.9333 -85.6167 297° West 430 495 38,000  Level Winnipeg Center
Wed 12:45:42 PM 47.0333 -85.9000 296° West 430 495 38,000  Level Toronto Center
Wed 12:46:42 PM 47.0833 -86.0500 303° West 430 495 38,000  Level Toronto Center
Wed 12:47:42 PM 47.1500 -86.2000 296° West 430 495 38,000  Level Toronto Center
Wed 12:48:42 PM 47.2000 -86.3500 294° West 430 495 38,000  Level Toronto Center
Wed 12:49:42 PM 47.2500 -86.5167 296° West 420 483 38,000  Level Toronto Center
Wed 12:50:42 PM 47.3000 -86.6667 303° West 420 483 38,000  Level Toronto Center
Wed 12:51:42 PM 47.3667 -86.8167 306° West 420 483 38,000  Level Toronto Center
Wed 12:52:14 PM 47.3833 -86.8500 296° West 420 483 38,000  Level Winnipeg Center
Wed 12:53:14 PM 47.4333 -87.0000 294° West 430 495 38,000  Level Winnipeg Center
Wed 12:54:14 PM 47.4833 -87.1667 303° West 430 495 38,000  Level Winnipeg Center
Wed 12:55:14 PM 47.5500 -87.3167 296° West 420 483 38,000  Level Winnipeg Center
Wed 12:56:14 PM 47.6000 -87.4667 301° West 420 483 38,000  Level Winnipeg Center
Wed 12:57:14 PM 47.6667 -87.6333 288° West 420 483 38,000  Level Winnipeg Center
Wed 12:58:14 PM 47.7000 -87.7833 296° West 420 483 38,000  Level Winnipeg Center
Wed 12:59:14 PM 47.7500 -87.9333 301° West 420 483 38,000  Level Winnipeg Center
Wed 01:00:14 PM 47.8167 -88.1000 299° West 420 483 38,000  Level Winnipeg Center
Wed 01:01:14 PM 47.8667 -88.2333 287° West 420 483 38,000  Level Winnipeg Center
Wed 01:02:14 PM 47.9000 -88.4000 297° West 410 472 38,000  Level Winnipeg Center
Wed 01:03:14 PM 47.9500 -88.5500 307° West 410 472 38,000  Level Winnipeg Center
Wed 01:04:14 PM 48.0167 -88.6833 294° West 410 472 38,000  Level Winnipeg Center
Wed 01:05:14 PM 48.0667 -88.8500 295° West 410 472 38,000  Level Winnipeg Center
Wed 01:07:14 PM 48.1667 -89.1667 297° West 410 472 38,000  Level Winnipeg Center
Wed 01:08:14 PM 48.2167 -89.3167 287° West 410 472 38,000  Level Winnipeg Center
Wed 01:09:14 PM 48.2500 -89.4833 294° West 410 472 38,000  Level Winnipeg Center
Wed 01:12:14 PM 48.3833 -89.9333 294° West 410 472 38,000  Level Winnipeg Center
Wed 01:13:14 PM 48.4333 -90.1000 289° West 410 472 38,000  Level Winnipeg Center
Wed 01:14:14 PM 48.4667 -90.2500 295° West 410 472 38,000  Level Winnipeg Center
Wed 01:17:14 PM 48.6167 -90.7333 291° West 410 472 38,000  Level Winnipeg Center
Wed 01:19:14 PM 48.7000 -91.0667 300° West 400 460 38,000  Level Winnipeg Center
Wed 01:20:14 PM 48.7500 -91.2000 285° West 400 460 38,000  Level Winnipeg Center
Wed 01:21:14 PM 48.7833 -91.3833 293° West 400 460 38,000  Level Winnipeg Center
Wed 01:23:15 PM 48.8667 -91.6833 291° West 400 460 38,000  Level Winnipeg Center
Wed 01:24:15 PM 48.9000 -91.8167 293° West 400 460 38,000  Level Winnipeg Center
Wed 01:25:15 PM 48.9500 -92.0000 289° West 400 460 38,000  Level Winnipeg Center
Wed 01:26:15 PM 48.9833 -92.1500 295° West 400 460 38,000  Level Winnipeg Center
Wed 01:27:15 PM 49.0333 -92.3167 289° West 400 460 38,000  Level Winnipeg Center
Wed 01:28:15 PM 49.0667 -92.4667 297° West 400 460 38,000  Level Winnipeg Center
Wed 01:29:15 PM 49.1167 -92.6167 286° West 400 460 38,000  Level Winnipeg Center
Wed 01:30:15 PM 49.1500 -92.8000 289° West 400 460 38,000  Level Winnipeg Center
Wed 01:31:15 PM 49.1833 -92.9500 295° West 400 460 38,000  Level Winnipeg Center
Wed 01:32:15 PM 49.2333 -93.1167 289° West 390 449 38,000  Level Winnipeg Center
Wed 01:33:15 PM 49.2667 -93.2667 287° West 400 460 38,000  Level Winnipeg Center
Wed 01:34:15 PM 49.3000 -93.4333 304° West 400 460 38,000  Level Winnipeg Center
Wed 01:35:15 PM 49.3667 -93.5833 280° West 400 460 38,000  Level Winnipeg Center
Wed 01:36:15 PM 49.3833 -93.7333 295° West 390 449 38,000  Level Winnipeg Center
Wed 01:37:15 PM 49.4333 -93.9000 280° West 390 449 38,000  Level Winnipeg Center
Wed 01:38:15 PM 49.4500 -94.0500 278° West 390 449 38,000  Level Winnipeg Center
Wed 01:39:15 PM 49.4667 -94.2333 280° West 400 460 38,000  Level Winnipeg Center
Wed 01:40:15 PM 49.4833 -94.3833 270° West 400 460 38,000  Level Winnipeg Center
Wed 01:41:15 PM 49.4833 -94.5667 270° West 400 460 38,000  Level Winnipeg Center
Wed 01:42:15 PM 49.4833 -94.7500 276° West 400 460 38,000 -325 Level Winnipeg Center
Wed 01:45:15 PM 49.5167 -95.2667 270° West 390 449 36,700 -925 Descending Winnipeg Center
Wed 01:46:15 PM 49.5167 -95.4167 270° West 390 449 34,300 -2,800 Descending Winnipeg Center
Wed 01:47:15 PM 49.5167 -95.6000 270° West 390 449 31,100 -3,100 Descending Winnipeg Center
Wed 01:48:15 PM 49.5167 -95.7500 287° West 380 437 28,100 -2,800 Descending Winnipeg Center
Wed 01:49:15 PM 49.5500 -95.9167 294° West 370 426 25,500 -2,600 Descending Winnipeg Center
Wed 01:50:15 PM 49.5833 -96.0333 297° West 360 414 22,900 -2,650 Descending Winnipeg Center
Wed 01:51:15 PM 49.6333 -96.1833 291° West 350 403 20,200 -2,650 Descending Winnipeg Center
Wed 01:52:15 PM 49.6667 -96.3167 300° West 340 391 17,600 -2,650 Descending Winnipeg Center
Wed 01:53:15 PM 49.7167 -96.4500 291° West 330 380 14,900 -2,550 Descending Winnipeg Center
Wed 01:54:15 PM 49.7500 -96.5833 294° West 330 380 12,500 -2,200 Descending Winnipeg Center
Wed 01:55:15 PM 49.7833 -96.7000 302° West 320 368 10,500 -1,550 Descending Winnipeg Center
Wed 01:56:15 PM 49.8167 -96.7833 321° Northwest 280 322 9,400 -1,550 Descending Winnipeg Center
Wed 01:57:15 PM 49.8833 -96.8667 319° Northwest 270 311 7,400 -1,850 Descending Winnipeg Center
Wed 01:58:15 PM 49.9333 -96.9333 313° West 270 311 5,700 -1,300 Descending Winnipeg Center
Wed 01:59:15 PM 49.9833 -97.0167 327° Northwest 250 288 4,800 -850 Descending Winnipeg Center
Wed 02:00:15 PM 50.0333 -97.0667 270° West 220 253 4,000 -700 Descending Winnipeg Center
Wed 02:01:15 PM 50.0333 -97.1667 213° Southwest 200 230 3,400 -800 Descending Winnipeg Center
Wed 02:02:15 PM 50.0000 -97.2000 203° Southwest 180 207 2,400 -900 Descending Winnipeg Center
Wed 02:03:15 PM 49.9500 -97.2333 203° Southwest 160 184 1,600 -800 Descending Winnipeg Center

Login

Don't have an account? Register now (free) for customized features, flight alerts, and more!